Time;durP1;ratioP1;P1;durP2;ratioP2;P2;SDS_P1;SDS_P2;PMS_P1;PMS_P2;Temp;Humidity;BMP_temperature;BMP_pressure;BME280_temperature;BME280_humidity;BME280_pressure;Samples;Min_cycle;Max_cycle;Signal;HPM_P1;HPM_P2
2020/12/05 00:00:45;;;;;;;10.30;4.62;;;;;;;-4.82;85.90;102034.84;1681108;84;21157;-56
2020/12/05 00:03:13;;;;;;;7.80;4.15;;;;;;;-4.81;86.46;102032.72;1699877;84;21366;-56
2020/12/05 00:05:42;;;;;;;10.23;4.58;;;;;;;-4.83;86.69;102020.46;1694884;83;21119;-56
2020/12/05 00:08:10;;;;;;;10.75;3.67;;;;;;;-4.82;86.77;102028.92;1694917;84;21047;-57
2020/12/05 00:10:38;;;;;;;10.43;4.40;;;;;;;-4.83;86.89;102031.91;1693688;84;21067;-56
2020/12/05 00:13:06;;;;;;;10.58;4.20;;;;;;;-4.82;87.06;102040.37;1684875;84;21090;-56
2020/12/05 00:15:35;;;;;;;9.98;4.42;;;;;;;-4.85;87.21;102041.72;1686259;84;21211;-56
2020/12/05 00:18:03;;;;;;;10.78;5.08;;;;;;;-4.89;87.40;102043.50;1641911;86;21053;-56
2020/12/05 00:20:31;;;;;;;7.30;3.72;;;;;;;-4.92;87.75;102060.14;1694300;84;21054;-57
2020/12/05 00:23:00;;;;;;;8.43;3.83;;;;;;;-4.94;87.96;102048.72;1688211;84;21057;-56
2020/12/05 00:25:28;;;;;;;9.25;4.87;;;;;;;-4.97;88.35;102046.69;1692279;84;21115;-57
2020/12/05 00:27:57;;;;;;;9.68;4.05;;;;;;;-4.98;88.61;102038.67;1692915;84;21176;-57
2020/12/05 00:30:28;;;;;;;11.35;4.80;;;;;;;-5.00;89.07;102039.98;1694022;83;20996;-57
2020/12/05 00:33:02;;;;;;;9.90;4.33;;;;;;;-4.99;89.29;102042.09;1688939;84;20961;-56
2020/12/05 00:35:30;;;;;;;7.83;4.17;;;;;;;-4.99;89.69;102042.09;1699689;84;21212;-57
2020/12/05 00:37:59;;;;;;;10.08;4.30;;;;;;;-5.01;90.04;102037.47;1695588;84;21182;-56
2020/12/05 00:40:27;;;;;;;9.63;4.37;;;;;;;-5.02;90.32;102039.63;1692218;84;21219;-56
2020/12/05 00:42:55;;;;;;;9.88;4.92;;;;;;;-5.02;90.65;102035.81;1703538;83;20960;-57
2020/12/05 00:45:23;;;;;;;9.30;3.62;;;;;;;-5.04;90.95;102035.83;1696680;83;21236;-57
2020/12/05 00:47:52;;;;;;;11.43;5.60;;;;;;;-5.03;91.28;102034.15;1696263;84;21055;-56
2020/12/05 00:50:20;;;;;;;10.38;4.67;;;;;;;-5.04;91.47;102030.74;1702490;84;21177;-56
2020/12/05 00:52:49;;;;;;;8.45;4.65;;;;;;;-5.04;91.81;102030.74;1694481;84;21406;-57
2020/12/05 00:55:18;;;;;;;8.15;3.90;;;;;;;-5.02;91.95;102034.53;1695724;84;21193;-57
2020/12/05 00:57:46;;;;;;;10.15;4.30;;;;;;;-5.03;92.13;102038.80;1691675;84;21219;-58
2020/12/05 01:00:17;;;;;;;11.10;4.33;;;;;;;-5.04;92.40;102040.08;1694551;84;20982;-56
2020/12/05 01:02:46;;;;;;;10.25;4.03;;;;;;;-5.05;92.70;102040.52;1686397;84;21193;-57
2020/12/05 01:05:15;;;;;;;8.10;4.12;;;;;;;-5.04;93.04;102032.45;1686682;84;21521;-56
2020/12/05 01:07:43;;;;;;;8.60;3.83;;;;;;;-5.02;93.47;102030.72;1689754;84;21165;-56
2020/12/05 01:10:12;;;;;;;11.00;4.97;;;;;;;-5.02;93.72;102035.81;1681629;84;21198;-56
2020/12/05 01:12:40;;;;;;;8.18;4.45;;;;;;;-5.03;94.00;102032.88;1693411;84;21265;-57
2020/12/05 01:15:08;;;;;;;8.83;4.80;;;;;;;-5.02;94.36;102025.64;1688591;84;21096;-56
2020/12/05 01:17:36;;;;;;;8.98;4.37;;;;;;;-5.02;94.67;102021.38;1694214;84;21161;-57
2020/12/05 01:20:05;;;;;;;9.55;4.85;;;;;;;-4.99;94.98;102020.48;1687753;84;21134;-56
2020/12/05 01:22:34;;;;;;;9.13;4.90;;;;;;;-4.97;95.32;102018.71;1698453;83;21122;-56
2020/12/05 01:25:04;;;;;;;8.18;4.28;;;;;;;-4.97;95.59;102021.25;1694542;84;21197;-56
2020/12/05 01:27:32;;;;;;;11.73;4.95;;;;;;;-4.98;96.13;102030.59;1698207;84;21106;-57
2020/12/05 01:30:00;;;;;;;10.25;4.67;;;;;;;-4.97;96.35;102022.52;1693555;84;21208;-57
2020/12/05 01:32:29;;;;;;;9.43;4.25;;;;;;;-4.97;96.75;102019.55;1701421;84;21169;-57
2020/12/05 01:34:57;;;;;;;8.25;4.15;;;;;;;-4.94;96.92;102017.36;1696741;83;21564;-57
2020/12/05 01:37:25;;;;;;;10.00;4.60;;;;;;;-4.92;97.21;102027.91;1695175;84;21045;-56
2020/12/05 01:39:53;;;;;;;7.60;3.75;;;;;;;-4.86;97.36;102029.87;1694714;84;21157;-56
2020/12/05 01:42:21;;;;;;;11.45;4.80;;;;;;;-4.85;97.51;102031.09;1694739;84;21209;-56
2020/12/05 01:44:49;;;;;;;10.63;4.42;;;;;;;-4.81;97.64;102033.13;1697833;84;21139;-56
2020/12/05 01:47:19;;;;;;;7.80;3.87;;;;;;;-4.79;97.74;102039.85;1698665;83;20957;-56
2020/12/05 01:49:47;;;;;;;7.72;3.80;;;;;;;-4.78;97.81;102036.42;1692950;83;20995;-56
2020/12/05 01:52:16;;;;;;;7.83;3.52;;;;;;;-4.75;97.89;102040.16;1679901;84;21216;-56
2020/12/05 01:54:44;;;;;;;9.90;4.22;;;;;;;-4.72;97.85;102039.26;1694648;84;21324;-56
2020/12/05 01:57:12;;;;;;;8.20;4.12;;;;;;;-4.70;97.77;102038.77;1699811;84;21182;-57
2020/12/05 01:59:40;;;;;;;6.65;3.72;;;;;;;-4.69;97.73;102029.83;1692718;84;21230;-56
2020/12/05 02:02:08;;;;;;;9.68;4.30;;;;;;;-4.67;97.52;102039.95;1702349;84;21047;-56
2020/12/05 02:05:00;;;;;;;8.50;4.03;;;;;;;-4.69;97.24;102034.92;1695385;84;21161;-57
2020/12/05 02:07:35;;;;;;;;;;;;;;;-4.68;96.96;102034.04;1691545;84;21529;-56
2020/12/05 02:10:03;;;;;;;10.03;4.42;;;;;;;-4.69;96.69;102040.02;1698545;83;20188;-56
2020/12/05 02:12:44;;;;;;;7.97;4.30;;;;;;;-4.69;96.61;102036.64;1699915;84;21162;-56
2020/12/05 02:15:23;;;;;;;8.13;3.92;;;;;;;-4.69;96.41;102034.92;1694527;84;21095;-56
2020/12/05 02:18:00;;;;;;;9.10;3.67;;;;;;;-4.68;96.23;102043.39;1698344;84;21098;-57
2020/12/05 02:20:29;;;;;;;8.58;4.25;;;;;;;-4.68;95.97;102028.95;1703278;84;21373;-56
2020/12/05 02:23:19;;;;;;;7.40;3.70;;;;;;;-4.65;95.77;102023.78;1700222;84;21058;-57
2020/12/05 02:25:56;;;;;;;9.95;4.35;;;;;;;-4.63;95.69;102026.27;1640932;87;21018;-57
2020/12/05 02:28:24;;;;;;;9.18;4.10;;;;;;;-4.60;95.61;102027.91;1689604;84;21197;-56
2020/12/05 02:30:52;;;;;;;7.92;3.72;;;;;;;-4.57;95.55;102038.02;1696414;84;21168;-56
2020/12/05 02:33:20;;;;;;;9.78;4.12;;;;;;;-4.56;95.57;102032.03;1698889;84;21203;-56
2020/12/05 02:35:48;;;;;;;7.80;3.60;;;;;;;-4.54;95.53;102046.84;1641432;87;21069;-56
2020/12/05 02:38:43;;;;;;;6.70;3.15;;;;;;;-4.53;95.28;102044.24;1685339;83;21185;-57
2020/12/05 02:41:12;;;;;;;8.53;3.85;;;;;;;-4.50;95.01;102044.61;1688409;84;21114;-55
2020/12/05 02:43:40;;;;;;;8.85;3.72;;;;;;;-4.49;94.79;102053.91;1696625;84;21174;-56
2020/12/05 02:46:08;;;;;;;7.22;4.25;;;;;;;-4.50;94.58;102045.88;1686219;84;21313;-58
2020/12/05 02:48:36;;;;;;;9.93;3.62;;;;;;;-4.51;94.73;102039.95;1686739;84;21223;-56
2020/12/05 02:51:04;;;;;;;10.00;3.75;;;;;;;-4.49;94.98;102044.99;1689691;84;21020;-56
2020/12/05 03:01:42;;;;;;;7.43;3.87;;;;;;;-4.43;95.12;102041.02;1812633;77;22750;-57
2020/12/05 03:04:11;;;;;;;11.12;4.58;;;;;;;-4.49;94.96;102042.00;1762546;80;20966;-57
2020/12/05 03:06:39;;;;;;;10.20;4.28;;;;;;;-4.53;94.75;102035.78;1742368;80;21167;-57
2020/12/05 03:09:08;;;;;;;8.95;4.22;;;;;;;-4.56;94.38;102051.95;1752916;80;20992;-57
2020/12/05 03:11:37;;;;;;;11.25;4.62;;;;;;;-4.58;94.42;102043.95;1746996;80;20975;-55
2020/12/05 03:14:05;;;;;;;8.05;3.80;;;;;;;-4.62;94.43;102049.59;1755802;80;21069;-56
2020/12/05 03:16:34;;;;;;;9.90;4.65;;;;;;;-4.63;94.19;102046.63;1745791;80;20980;-56
2020/12/05 03:19:02;;;;;;;9.38;4.83;;;;;;;-4.67;93.78;102047.15;1753827;80;21219;-56
2020/12/05 03:21:30;;;;;;;9.18;3.83;;;;;;;-4.72;93.77;102051.53;1739276;81;20975;-55
2020/12/05 03:23:59;;;;;;;9.88;4.25;;;;;;;-4.76;94.03;102052.94;1723418;81;21039;-56
2020/12/05 03:26:27;;;;;;;9.13;4.17;;;;;;;-4.80;94.29;102054.72;1713708;81;21033;-57
2020/12/05 03:28:56;;;;;;;7.97;4.17;;;;;;;-4.82;94.23;102061.55;1717747;83;21177;-56
2020/12/05 03:34:06;;;;;;;7.23;3.37;;;;;;;-4.80;94.10;102053.89;1872993;76;22796;-57
2020/12/05 03:36:34;;;;;;;6.70;3.37;;;;;;;-4.85;93.88;102072.23;1811456;78;21038;-57
2020/12/05 03:39:03;;;;;;;10.78;3.92;;;;;;;-4.87;93.67;102071.45;1814472;78;21208;-56
2020/12/05 03:41:31;;;;;;;8.08;3.65;;;;;;;-4.92;93.63;102055.05;1783110;80;20958;-57
2020/12/05 03:43:59;;;;;;;9.98;4.20;;;;;;;-4.93;93.94;102054.63;1817550;78;21044;-57
2020/12/05 03:46:28;;;;;;;11.90;4.47;;;;;;;-4.92;94.32;102048.69;1782045;80;21045;-57
2020/12/05 03:48:56;;;;;;;10.95;5.00;;;;;;;-4.91;94.62;102049.08;1784690;80;20951;-57
2020/12/05 03:51:25;;;;;;;10.53;4.85;;;;;;;-4.91;94.98;102044.83;1819779;78;21207;-57
2020/12/05 03:53:53;;;;;;;9.23;4.47;;;;;;;-4.93;95.11;102046.56;1785026;80;20974;-57
2020/12/05 03:56:23;;;;;;;11.12;4.25;;;;;;;-4.96;94.96;102058.11;1815060;78;20974;-57
2020/12/05 03:58:53;;;;;;;10.40;5.00;;;;;;;-5.04;94.92;102056.61;1784347;80;21010;-58
2020/12/05 04:01:22;;;;;;;10.30;4.72;;;;;;;-5.12;95.00;102058.52;1818615;78;21009;-57
2020/12/05 04:03:50;;;;;;;12.13;4.90;;;;;;;-5.21;95.20;102054.06;1783851;80;21202;-57
2020/12/05 04:06:18;;;;;;;11.88;4.42;;;;;;;-5.26;95.51;102071.14;1820273;78;20994;-57
2020/12/05 04:08:47;;;;;;;11.00;5.50;;;;;;;-5.31;96.05;102065.31;1783831;80;20946;-57
2020/12/05 04:11:15;;;;;;;12.75;4.10;;;;;;;-5.34;96.39;102062.88;1822076;78;20887;-55
2020/12/05 04:13:44;;;;;;;9.88;4.47;;;;;;;-5.37;96.39;102061.67;1814285;78;21578;-57
2020/12/05 04:16:12;;;;;;;9.78;4.80;;;;;;;-5.42;96.11;102069.41;1785379;80;21205;-57
2020/12/05 04:18:40;;;;;;;10.55;4.60;;;;;;;-5.47;95.94;102069.10;1817846;78;21014;-55
2020/12/05 04:21:09;;;;;;;10.72;4.78;;;;;;;-5.51;95.90;102061.98;1787335;80;21018;-56
2020/12/05 04:23:38;;;;;;;13.08;4.67;;;;;;;-5.54;95.61;102071.38;1811968;78;21171;-58
2020/12/05 04:26:09;;;;;;;7.25;3.62;;;;;;;-5.58;95.45;102073.16;1786400;80;20986;-57
2020/12/05 04:28:36;;;;;;;8.58;3.98;;;;;;;-5.61;95.30;102087.19;1817911;78;21377;-56
2020/12/05 04:31:05;;;;;;;12.05;4.62;;;;;;;-5.65;94.66;102090.67;1810608;78;21037;-56
2020/12/05 04:33:33;;;;;;;10.53;4.53;;;;;;;-5.71;94.27;102095.91;1779324;80;21423;-56
2020/12/05 04:36:02;;;;;;;9.73;4.45;;;;;;;-5.80;94.00;102096.92;1820449;78;21159;-56
2020/12/05 04:38:30;;;;;;;11.73;4.95;;;;;;;-5.91;93.44;102087.02;1731522;80;21152;-56
2020/12/05 04:40:58;;;;;;;9.23;4.65;;;;;;;-6.00;93.24;102094.84;1819766;78;21251;-57
2020/12/05 04:43:27;;;;;;;11.65;4.47;;;;;;;-6.10;93.15;102102.23;1779330;80;20986;-57
2020/12/05 04:45:56;;;;;;;11.43;4.35;;;;;;;-6.20;93.18;102096.52;1819219;78;21033;-57
2020/12/05 04:48:24;;;;;;;11.80;4.20;;;;;;;-6.28;92.99;102105.98;1780880;80;20957;-57
2020/12/05 04:50:54;;;;;;;10.82;4.53;;;;;;;-6.35;93.18;102099.36;1815517;78;20986;-56
2020/12/05 04:53:22;;;;;;;10.65;4.45;;;;;;;-6.42;93.29;102105.41;1784343;79;21207;-56
2020/12/05 04:55:50;;;;;;;13.00;4.47;;;;;;;-6.49;93.44;102108.48;1821326;78;20997;-55
2020/12/05 04:58:21;;;;;;;10.55;4.75;;;;;;;-6.54;93.45;102109.45;1758651;80;21084;-56
2020/12/05 05:00:54;;;;;;;12.13;4.30;;;;;;;-6.61;93.49;102117.16;1818528;78;21563;-57
2020/12/05 05:03:25;;;;;;;10.08;4.20;;;;;;;-6.65;93.28;102119.78;1781967;80;21101;-56
2020/12/05 05:05:55;;;;;;;9.73;4.10;;;;;;;-6.72;93.21;102121.58;1783208;79;21218;-56
2020/12/05 05:08:24;;;;;;;12.85;4.83;;;;;;;-6.78;92.92;102122.97;1816964;78;20954;-56
2020/12/05 05:11:12;;;;;;;10.43;4.33;;;;;;;-6.85;92.47;102127.73;1813039;78;21199;-57
2020/12/05 05:13:59;;;;;;;14.45;5.25;;;;;;;-6.94;91.64;102129.14;1780940;79;21067;-56
2020/12/05 05:16:28;;;;;;;12.03;4.72;;;;;;;-7.02;90.68;102135.60;1818882;78;20936;-56
2020/12/05 05:18:59;;;;;;;10.95;4.67;;;;;;;-7.07;89.62;102132.75;1779984;80;21199;-57
2020/12/05 05:21:39;;;;;;;14.83;5.50;;;;;;;-7.07;88.78;102136.55;1778942;78;21590;-57
2020/12/05 05:24:14;;;;;;;10.50;4.95;;;;;;;-7.08;87.84;102144.99;1760709;80;21116;-56
2020/12/05 05:26:43;;;;;;;10.35;4.08;;;;;;;-7.11;87.17;102135.33;1810041;78;21057;-57
2020/12/05 05:29:28;;;;;;;10.45;4.50;;;;;;;-7.07;86.75;102147.52;1783699;80;21166;-56
2020/12/05 05:32:06;;;;;;;12.37;5.45;;;;;;;-6.94;86.00;102145.62;1784033;78;21186;-56
2020/12/05 05:34:29;;;;;;;9.50;3.80;;;;;;;-6.61;84.19;102132.38;1814526;78;21052;-56
2020/12/05 05:36:58;;;;;;;11.22;4.72;;;;;;;-6.61;84.19;102132.38;1816400;78;21215;-56
2020/12/05 05:39:27;;;;;;;9.93;4.17;;;;;;;-6.41;83.28;102136.25;1784362;80;21129;-56
2020/12/05 05:41:55;;;;;;;11.68;5.20;;;;;;;-6.24;82.02;102132.14;1810999;78;21152;-56
2020/12/05 05:44:27;;;;;;;13.60;5.10;;;;;;;-6.13;80.93;102132.78;1814054;78;22174;-56
2020/12/05 05:46:57;;;;;;;13.38;5.87;;;;;;;-6.01;80.19;102131.69;1778591;80;21499;-57
2020/12/05 05:49:29;;;;;;;13.15;5.62;;;;;;;-5.88;79.22;102134.34;1821403;78;20970;-56
2020/12/05 05:52:03;;;;;;;16.23;5.95;;;;;;;-5.75;78.50;102133.23;1777636;80;21088;-56
2020/12/05 05:54:35;;;;;;;11.30;5.50;;;;;;;-5.58;77.93;102140.48;1820013;78;21483;-56
2020/12/05 05:57:06;;;;;;;11.43;5.53;;;;;;;-5.43;76.96;102149.03;1778243;80;21385;-57
2020/12/05 05:59:38;;;;;;;14.60;6.17;;;;;;;-5.27;75.49;102153.34;1821794;78;21471;-57
2020/12/05 06:02:09;;;;;;;9.18;5.10;;;;;;;-5.19;74.41;102157.83;1815042;78;20990;-57
2020/12/05 06:04:39;;;;;;;10.32;5.08;;;;;;;-5.07;73.97;102149.52;1784608;80;21168;-56
2020/12/05 06:07:15;;;;;;;11.38;5.17;;;;;;;-4.92;73.43;102152.53;1815908;78;21594;-56
2020/12/05 06:09:53;;;;;;;9.68;4.53;;;;;;;-4.76;72.12;102158.52;1785012;80;21176;-57
2020/12/05 06:12:25;;;;;;;10.60;5.53;;;;;;;-4.63;71.03;102159.03;1813383;78;21180;-56
2020/12/05 06:14:54;;;;;;;11.08;4.70;;;;;;;-4.54;70.20;102153.28;1779173;80;20946;-55
2020/12/05 06:17:23;;;;;;;11.88;5.60;;;;;;;-4.48;69.40;102163.73;1814712;78;21041;-56
2020/12/05 06:19:53;;;;;;;9.25;4.70;;;;;;;-4.38;69.13;102170.27;1819796;77;20966;-57
2020/12/05 06:22:48;;;;;;;9.88;5.12;;;;;;;-4.27;68.66;102164.45;1816507;78;21190;-56
2020/12/05 06:25:18;;;;;;;9.43;4.80;;;;;;;-4.18;67.71;102173.55;1783852;80;21150;-57
2020/12/05 06:27:53;;;;;;;11.48;6.08;;;;;;;-4.12;66.95;102176.38;1812876;78;21523;-56
2020/12/05 06:30:23;;;;;;;8.80;5.20;;;;;;;-4.07;65.77;102177.91;1816552;78;20958;-56
2020/12/05 06:32:55;;;;;;;10.85;4.35;;;;;;;-4.19;65.40;102181.63;1805553;78;21195;-56
2020/12/05 06:35:32;;;;;;;12.37;5.12;;;;;;;-4.33;65.22;102189.23;1805648;77;21289;-57
2020/12/05 06:38:00;;;;;;;10.75;6.00;;;;;;;-4.40;65.24;102180.91;1805988;78;21133;-57
2020/12/05 06:40:28;;;;;;;13.75;5.67;;;;;;;-4.38;64.92;102172.81;1809704;77;21568;-57
2020/12/05 06:42:56;;;;;;;10.50;5.17;;;;;;;-4.34;65.00;102179.48;1780140;79;21141;-57
2020/12/05 06:45:33;;;;;;;12.37;4.83;;;;;;;-4.26;64.53;102179.28;1809126;79;21184;-57
2020/12/05 06:48:13;;;;;;;9.83;4.90;;;;;;;-4.21;64.07;102174.89;1804177;77;21207;-57
2020/12/05 06:50:46;;;;;;;10.50;5.28;;;;;;;-4.25;63.38;102174.14;1810824;78;20962;-58
2020/12/05 06:53:25;;;;;;;15.90;5.40;;;;;;;-4.27;63.40;102181.00;1803511;78;21149;-57
2020/12/05 06:55:56;;;;;;;;;;;;;;;-4.29;63.19;102185.28;1812304;79;21625;-56
2020/12/05 06:58:29;;;;;;;13.08;5.80;;;;;;;-4.30;63.39;102175.16;1804817;78;20216;-56
2020/12/05 07:00:57;;;;;;;12.80;6.17;;;;;;;-4.26;63.76;102191.58;1809216;79;21520;-57
2020/12/05 07:03:30;;;;;;;15.55;6.40;;;;;;;-4.05;63.56;102191.87;1806273;79;20978;-57
2020/12/05 07:05:58;;;;;;;25.35;11.28;;;;;;;-3.83;63.25;102186.58;1812599;78;21930;-56
2020/12/05 07:08:37;;;;;;;46.85;22.48;;;;;;;-3.61;61.51;102185.53;1810377;78;21096;-55
2020/12/05 07:11:15;;;;;;;17.82;9.90;;;;;;;-3.50;60.49;102197.98;1806649;78;20919;-56
2020/12/05 07:13:47;;;;;;;15.53;6.30;;;;;;;-3.59;59.62;102193.16;1810821;78;21384;-55
2020/12/05 07:16:20;;;;;;;12.70;5.72;;;;;;;-3.68;59.52;102197.61;1803820;78;21113;-57
2020/12/05 07:18:54;;;;;;;10.30;6.12;;;;;;;-3.78;59.72;102193.67;1811490;78;21057;-55
2020/12/05 07:21:23;;;;;;;10.65;5.42;;;;;;;-3.85;60.32;102174.34;1807921;77;21191;-56
2020/12/05 07:23:52;;;;;;;10.00;5.15;;;;;;;-3.79;60.60;102185.64;1806003;78;21136;-55
2020/12/05 07:26:20;;;;;;;12.20;6.30;;;;;;;-3.72;60.23;102182.45;1811215;78;21198;-57
2020/12/05 07:28:51;;;;;;;10.98;5.50;;;;;;;-3.65;60.42;102189.50;1810976;77;21022;-58
2020/12/05 07:31:20;;;;;;;9.95;5.22;;;;;;;-3.53;59.88;102190.41;1811926;78;21546;-58
2020/12/05 07:33:48;;;;;;;11.97;4.75;;;;;;;-3.47;59.34;102177.50;1807297;77;21018;-57
2020/12/05 07:36:19;;;;;;;9.98;4.87;;;;;;;-3.46;59.10;102192.73;1805497;79;21165;-58
2020/12/05 07:38:49;;;;;;;16.32;8.53;;;;;;;-3.40;58.99;102178.98;1804115;79;22355;-56
2020/12/05 07:41:21;;;;;;;31.62;14.93;;;;;;;-3.43;58.65;102182.45;1807389;79;21026;-56
2020/12/05 07:43:49;;;;;;;10.93;5.70;;;;;;;-3.35;59.04;102178.39;1805851;79;21190;-56
2020/12/05 07:46:19;;;;;;;10.43;5.05;;;;;;;-3.21;58.23;102184.36;1753481;79;20997;-55
2020/12/05 07:48:47;;;;;;;9.78;5.05;;;;;;;-3.12;57.59;102194.72;1807946;79;21058;-55
2020/12/05 07:51:16;;;;;;;15.53;5.15;;;;;;;-3.09;57.33;102183.15;1803297;79;21156;-56
2020/12/05 07:53:45;;;;;;;9.33;4.95;;;;;;;-3.03;56.91;102177.83;1802455;79;20959;-56
2020/12/05 07:56:22;;;;;;;10.23;5.70;;;;;;;-3.05;56.11;102170.69;1805577;79;21152;-56
2020/12/05 07:58:56;;;;;;;8.45;4.72;;;;;;;-3.13;56.62;102182.85;1799962;79;21169;-56
2020/12/05 08:02:06;;;;;;;10.55;4.87;;;;;;;-3.10;56.29;102163.19;1797880;79;21129;-55
2020/12/05 08:04:52;;;;;;;10.95;4.97;;;;;;;-3.05;55.69;102167.69;1803870;79;21172;-56
2020/12/05 08:07:41;;;;;;;9.60;5.33;;;;;;;-2.90;55.72;102165.55;1808701;79;21125;-56
2020/12/05 08:10:15;;;;;;;23.18;12.90;;;;;;;-2.81;54.39;102167.34;1801142;79;21161;-55
2020/12/05 08:12:54;;;;;;;9.20;4.92;;;;;;;-2.90;53.98;102147.23;1801164;79;20982;-55
2020/12/05 08:15:22;;;;;;;12.30;5.55;;;;;;;-2.89;53.72;102168.03;1771272;79;21098;-56
2020/12/05 08:17:50;;;;;;;12.58;6.37;;;;;;;-2.89;52.95;102151.44;1801863;79;21309;-56
2020/12/05 08:20:18;;;;;;;10.82;6.15;;;;;;;-2.86;53.67;102149.25;1799219;79;21022;-56
2020/12/05 08:22:46;;;;;;;12.18;6.17;;;;;;;-2.68;52.86;102139.70;1770460;79;21598;-56
2020/12/05 08:25:14;;;;;;;10.45;4.65;;;;;;;-2.48;52.19;102142.85;1792066;79;21401;-56
2020/12/05 08:27:43;;;;;;;9.55;5.58;;;;;;;-2.37;50.51;102134.38;1808436;79;21195;-57
2020/12/05 08:30:11;;;;;;;15.30;6.25;;;;;;;-2.33;50.50;102130.83;1786793;79;21252;-57
2020/12/05 08:32:40;;;;;;;9.55;5.25;;;;;;;-2.35;49.54;102144.53;1789806;79;21166;-56
2020/12/05 08:35:10;;;;;;;9.23;4.72;;;;;;;-2.40;49.52;102148.53;1813338;78;20998;-56
2020/12/05 08:37:45;;;;;;;10.98;5.08;;;;;;;-2.43;49.39;102151.63;1818522;78;21558;-55
2020/12/05 08:40:17;;;;;;;16.73;9.35;;;;;;;-2.46;49.63;102142.37;1786578;78;21527;-57
2020/12/05 08:42:49;;;;;;;15.70;7.05;;;;;;;-2.45;49.31;102133.38;1815349;78;21329;-57
2020/12/05 08:45:20;;;;;;;12.40;7.35;;;;;;;-2.42;49.30;102129.89;1783775;80;21499;-57
2020/12/05 08:47:51;;;;;;;24.75;13.40;;;;;;;-2.32;49.43;102139.32;1806019;78;21604;-57
2020/12/05 08:50:25;;;;;;;10.60;5.60;;;;;;;-2.24;49.17;102141.16;1777921;78;21071;-57
2020/12/05 08:52:57;;;;;;;9.48;5.60;;;;;;;-2.20;49.20;102137.60;1815586;78;21068;-57
2020/12/05 08:55:27;;;;;;;11.57;5.53;;;;;;;-2.17;49.16;102125.17;1817426;78;21364;-57
2020/12/05 08:57:57;;;;;;;9.60;4.50;;;;;;;-2.11;49.09;102121.13;1785833;79;21161;-57
2020/12/05 09:00:26;;;;;;;9.95;5.00;;;;;;;-2.10;49.01;102120.23;1817268;78;21487;-56
2020/12/05 09:02:54;;;;;;;13.98;5.97;;;;;;;-2.10;48.88;102112.57;1813278;78;21100;-56
2020/12/05 09:05:22;;;;;;;10.18;5.83;;;;;;;-2.08;49.15;102114.19;1783799;80;21155;-56
2020/12/05 09:08:00;;;;;;;10.15;5.58;;;;;;;-2.04;49.07;102116.19;1816442;78;21188;-56
2020/12/05 09:10:29;;;;;;;9.68;4.85;;;;;;;-2.00;48.35;102116.47;1782191;80;21594;-56
2020/12/05 09:13:07;;;;;;;14.35;5.85;;;;;;;-1.92;47.89;102123.41;1813727;78;21022;-55
2020/12/05 09:15:35;;;;;;;11.08;4.97;;;;;;;-1.83;47.82;102134.55;1783890;79;21125;-55
2020/12/05 09:18:03;;;;;;;11.08;5.65;;;;;;;-1.72;47.18;102127.31;1814796;78;21096;-56
2020/12/05 09:20:31;;;;;;;11.33;4.78;;;;;;;-1.63;47.01;102132.97;1780966;80;21213;-56
2020/12/05 09:23:02;;;;;;;11.90;4.67;;;;;;;-1.56;46.90;102116.50;1808007;78;21148;-56
2020/12/05 09:25:35;;;;;;;9.28;4.87;;;;;;;-1.42;46.96;102111.69;1807894;78;21192;-56
2020/12/05 09:28:16;;;;;;;9.58;5.15;;;;;;;-1.30;46.92;102121.88;1782737;80;21152;-55
2020/12/05 09:30:44;;;;;;;9.13;4.28;;;;;;;-1.25;45.81;102111.87;1804395;78;21180;-57
2020/12/05 09:33:17;;;;;;;8.50;5.00;;;;;;;-1.32;45.97;102125.80;1781137;80;21618;-55
2020/12/05 09:35:45;;;;;;;8.60;4.40;;;;;;;-1.29;46.43;102124.82;1819218;78;21084;-57
2020/12/05 09:38:14;;;;;;;10.43;5.00;;;;;;;-1.30;46.01;102140.62;1815432;78;21142;-57
2020/12/05 09:40:42;;;;;;;9.15;4.62;;;;;;;-1.37;46.52;102131.97;1814609;78;21180;-55
2020/12/05 09:43:11;;;;;;;8.78;4.95;;;;;;;-1.41;46.26;102127.41;1780874;80;21161;-55
2020/12/05 09:45:39;;;;;;;26.25;13.43;;;;;;;-1.42;46.36;102130.88;1815453;78;21192;-57
2020/12/05 09:48:07;;;;;;;11.35;5.25;;;;;;;-1.36;46.68;102129.37;1800815;78;21199;-56
2020/12/05 09:50:36;;;;;;;8.38;4.22;;;;;;;-1.25;46.79;102132.34;1817474;78;21132;-56
2020/12/05 09:53:04;;;;;;;8.68;4.53;;;;;;;-1.15;46.53;102122.55;1819427;78;21108;-54
2020/12/05 09:55:32;;;;;;;12.47;4.50;;;;;;;-1.04;46.44;102123.41;1817774;78;21125;-56
2020/12/05 09:58:00;;;;;;;11.22;6.58;;;;;;;-0.94;46.20;102130.28;1819199;78;21270;-56
2020/12/05 10:00:29;;;;;;;9.90;5.17;;;;;;;-0.89;46.02;102128.35;1804552;78;21105;-55
2020/12/05 10:02:57;;;;;;;9.73;3.90;;;;;;;-0.90;46.05;102121.13;1813737;78;21140;-55
2020/12/05 10:05:26;;;;;;;7.70;3.77;;;;;;;-0.90;45.60;102124.96;1816988;78;21002;-55
2020/12/05 10:07:58;;;;;;;8.35;4.08;;;;;;;-0.95;45.24;102117.90;1819373;78;21095;-53
2020/12/05 10:10:26;;;;;;;9.03;4.77;;;;;;;-1.02;45.44;102120.35;1817991;78;21207;-55
2020/12/05 10:12:55;;;;;;;8.48;4.22;;;;;;;-1.03;45.38;102114.83;1817050;78;21276;-55
2020/12/05 10:15:23;;;;;;;9.75;4.65;;;;;;;-1.05;45.38;102105.11;1813164;78;20914;-52
2020/12/05 10:17:52;;;;;;;10.45;5.10;;;;;;;-1.02;45.54;102116.52;1811429;78;21188;-54
2020/12/05 10:20:20;;;;;;;11.38;5.70;;;;;;;-1.08;45.05;102132.11;1811329;78;21191;-55
2020/12/05 10:22:50;;;;;;;11.03;5.42;;;;;;;-1.10;45.66;102108.28;1781375;78;21268;-55
2020/12/05 10:25:19;;;;;;;11.53;4.97;;;;;;;-1.02;45.19;102101.98;1812862;78;21167;-56
2020/12/05 10:27:47;;;;;;;15.45;5.22;;;;;;;-0.99;45.11;102099.27;1817131;78;21183;-53
2020/12/05 10:30:15;;;;;;;10.50;5.80;;;;;;;-0.96;45.23;102109.02;1815513;78;21172;-53
2020/12/05 10:32:43;;;;;;;8.13;4.65;;;;;;;-0.92;44.74;102099.86;1813692;78;21614;-54
2020/12/05 10:35:12;;;;;;;13.75;4.42;;;;;;;-0.88;44.83;102103.95;1813983;78;21867;-54
2020/12/05 10:37:40;;;;;;;10.68;3.98;;;;;;;-0.83;44.23;102108.45;1819171;78;21061;-55
2020/12/05 10:40:08;;;;;;;7.95;4.03;;;;;;;-0.85;43.50;102111.52;1811911;78;21113;-55
2020/12/05 10:42:36;;;;;;;9.28;4.08;;;;;;;-0.91;43.63;102119.47;1816983;78;21211;-56
2020/12/05 10:45:04;;;;;;;9.70;4.33;;;;;;;-0.93;43.61;102102.05;1814423;78;21333;-56
2020/12/05 10:47:32;;;;;;;9.93;4.47;;;;;;;-0.88;43.34;102109.52;1814693;78;21263;-56
2020/12/05 10:50:01;;;;;;;10.58;3.60;;;;;;;-0.87;43.54;102121.00;1816681;78;21024;-57
2020/12/05 10:52:29;;;;;;;8.58;3.62;;;;;;;-0.81;43.52;102116.89;1817565;78;21176;-56
2020/12/05 10:54:57;;;;;;;6.42;3.50;;;;;;;-0.74;43.31;102110.62;1784587;80;21101;-58
2020/12/05 10:57:26;;;;;;;7.45;3.58;;;;;;;-0.75;43.26;102122.22;1814556;78;21510;-57
2020/12/05 10:59:54;;;;;;;7.40;3.87;;;;;;;-0.83;43.26;102125.09;1785999;80;21364;-57
2020/12/05 11:02:22;;;;;;;9.28;4.03;;;;;;;-0.91;43.54;102113.06;1817214;77;21226;-55
2020/12/05 11:04:50;;;;;;;6.47;3.42;;;;;;;-0.90;43.76;102110.05;1766115;79;21656;-57
2020/12/05 11:07:18;;;;;;;11.83;4.70;;;;;;;-0.85;43.19;102104.28;1801255;78;21148;-57
2020/12/05 11:09:48;;;;;;;8.93;4.37;;;;;;;-0.86;43.35;102109.03;1787466;78;21566;-55
2020/12/05 11:12:16;;;;;;;10.90;4.60;;;;;;;-0.86;43.20;102101.34;1790448;78;21368;-58
2020/12/05 11:14:45;;;;;;;10.80;4.15;;;;;;;-0.84;43.47;102107.22;1788981;78;21013;-57
2020/12/05 11:17:13;;;;;;;10.13;4.28;;;;;;;-0.82;43.31;102095.20;1806193;78;21141;-57
2020/12/05 11:19:41;;;;;;;10.70;4.50;;;;;;;-0.81;43.39;102095.13;1808259;79;21077;-56
2020/12/05 11:22:11;;;;;;;10.72;3.87;;;;;;;-0.76;43.51;102100.05;1803797;79;21121;-56
2020/12/05 11:24:40;;;;;;;8.38;4.03;;;;;;;-0.75;43.24;102097.44;1804592;79;21190;-56
2020/12/05 11:27:08;;;;;;;8.40;3.98;;;;;;;-0.77;43.02;102105.62;1806960;78;21144;-57
2020/12/05 11:29:36;;;;;;;9.93;4.95;;;;;;;-0.83;42.71;102105.89;1808457;79;21160;-57
2020/12/05 11:32:04;;;;;;;7.17;3.37;;;;;;;-0.87;42.79;102099.23;1805293;79;21176;-57
2020/12/05 11:34:32;;;;;;;7.12;3.75;;;;;;;-0.87;42.24;102098.37;1810124;79;21168;-56
2020/12/05 11:37:01;;;;;;;7.55;3.50;;;;;;;-0.90;42.33;102098.08;1805574;78;21190;-56
2020/12/05 11:39:29;;;;;;;8.65;4.05;;;;;;;-0.93;42.62;102115.30;1807026;78;21171;-56
2020/12/05 11:41:58;;;;;;;8.95;4.53;;;;;;;-1.00;43.17;102090.39;1809054;78;21197;-57
2020/12/05 11:44:26;;;;;;;12.07;4.67;;;;;;;-1.03;42.93;102082.83;1807270;79;20975;-57
2020/12/05 11:46:54;;;;;;;9.00;5.55;;;;;;;-1.05;42.25;102102.10;1805019;79;21164;-56